Terminal Aerodrome Forecast
Issued by NWS Twin Cities, MN

Home | Current Version | Previous Version | Text Only | Print | Product List | Glossary On
Versions: 1 2 3 4 5 6 7 8 9 10 11 12 13 14 15
042
FTUS43 KMPX 211611 AAA
TAFSTC
TAF AMD
KSTC 211611Z 2116/2212 32019G29KT P6SM SCT035
     FM212200 31014KT P6SM SKC
     FM220100 31009KT P6SM SKC=

USA.gov is the U.S. government's official web portal to all federal, state and local government web resources and services.